Time;durP1;ratioP1;P1;durP2;ratioP2;P2;SDS_P1;SDS_P2;PMS_P1;PMS_P2;Temp;Humidity;BMP_temperature;BMP_pressure;BME280_temperature;BME280_humidity;BME280_pressure;Samples;Min_cycle;Max_cycle;Signal;HPM_P1;HPM_P2
2023/01/16 00:00:52;;;;;;;1.73;0.20;;;5.10;99.90;;;;;;5019860;28;20033;-80
2023/01/16 00:03:18;;;;;;;1.80;0.20;;;5.10;99.90;;;;;;4992988;28;20025;-80
2023/01/16 00:05:43;;;;;;;1.38;0.28;;;5.10;99.90;;;;;;5001517;28;20489;-80
2023/01/16 00:08:10;;;;;;;0.65;0.20;;;5.10;99.90;;;;;;4990714;28;20022;-79
2023/01/16 00:10:35;;;;;;;1.42;0.20;;;5.10;99.90;;;;;;5018274;28;20022;-81
2023/01/16 00:13:01;;;;;;;1.50;0.20;;;5.10;99.90;;;;;;5001306;28;20396;-80
2023/01/16 00:15:27;;;;;;;1.05;0.10;;;5.00;99.90;;;;;;5002059;28;20499;-80
2023/01/16 00:17:53;;;;;;;1.25;0.10;;;5.00;99.90;;;;;;5005185;28;20029;-84
2023/01/16 00:20:19;;;;;;;0.80;0.10;;;4.90;99.90;;;;;;5000600;28;20535;-85
2023/01/16 00:22:44;;;;;;;0.70;0.13;;;4.90;99.90;;;;;;4987666;28;20025;-79
2023/01/16 00:25:10;;;;;;;1.65;0.20;;;4.90;99.90;;;;;;5033354;28;20540;-80
2023/01/16 00:27:36;;;;;;;1.25;0.10;;;4.90;99.90;;;;;;4990411;28;20029;-80
2023/01/16 00:30:03;;;;;;;2.40;0.40;;;4.90;99.90;;;;;;5016502;28;20080;-78
2023/01/16 00:32:29;;;;;;;1.67;0.30;;;4.90;99.90;;;;;;5016584;28;20022;-78
2023/01/16 00:34:54;;;;;;;1.10;0.40;;;4.80;99.90;;;;;;4999888;28;20112;-79
2023/01/16 00:37:20;;;;;;;1.40;0.57;;;4.70;99.90;;;;;;5009229;28;20057;-79
2023/01/16 00:39:46;;;;;;;1.63;0.60;;;4.70;99.90;;;;;;5032340;28;20067;-79
2023/01/16 00:42:11;;;;;;;1.65;0.60;;;4.80;99.90;;;;;;5017204;28;20053;-79
2023/01/16 00:44:37;;;;;;;2.88;1.40;;;4.70;99.90;;;;;;5029487;28;20399;-79
2023/01/16 00:47:03;;;;;;;2.72;1.10;;;4.70;99.90;;;;;;5016955;28;20100;-80
2023/01/16 00:49:28;;;;;;;2.00;1.00;;;4.70;99.90;;;;;;4999401;28;20068;-78
2023/01/16 00:51:54;;;;;;;2.67;1.17;;;4.70;99.90;;;;;;5016121;28;20028;-80
2023/01/16 00:54:20;;;;;;;2.58;0.93;;;4.60;99.90;;;;;;5008982;28;20026;-79
2023/01/16 00:56:46;;;;;;;2.35;0.90;;;4.60;99.90;;;;;;5009064;28;20037;-79
2023/01/16 00:59:11;;;;;;;2.10;1.10;;;4.60;99.90;;;;;;4991582;28;20116;-79
2023/01/16 01:01:37;;;;;;;1.92;1.00;;;4.50;99.90;;;;;;4989851;28;20026;-79
2023/01/16 01:04:04;;;;;;;1.90;0.90;;;4.50;99.90;;;;;;5005540;28;20029;-80
2023/01/16 01:06:29;;;;;;;2.08;0.98;;;4.50;99.90;;;;;;5005807;28;21303;-79
2023/01/16 01:08:56;;;;;;;1.48;0.70;;;4.50;99.90;;;;;;5015684;28;20474;-80
2023/01/16 01:11:22;;;;;;;2.00;1.00;;;4.50;99.90;;;;;;5032111;28;20026;-79
2023/01/16 01:13:48;;;;;;;2.13;0.98;;;4.50;99.90;;;;;;5007757;28;20117;-80
2023/01/16 01:16:14;;;;;;;2.00;0.90;;;4.50;99.90;;;;;;5016200;28;20117;-79
2023/01/16 01:18:41;;;;;;;3.08;1.52;;;4.50;99.90;;;;;;5011531;28;20065;-79
2023/01/16 01:21:07;;;;;;;2.25;0.80;;;4.50;99.90;;;;;;5007989;28;20038;-78
2023/01/16 01:23:33;;;;;;;1.90;0.80;;;4.50;99.90;;;;;;5011297;28;20060;-79
2023/01/16 01:26:04;;;;;;;3.05;0.60;;;4.50;99.90;;;;;;5018081;28;20022;-79
2023/01/16 01:28:30;;;;;;;1.30;0.50;;;4.50;99.90;;;;;;5018788;28;20033;-79
2023/01/16 01:30:56;;;;;;;0.93;0.40;;;4.40;99.90;;;;;;5007695;28;20022;-80
2023/01/16 01:33:21;;;;;;;0.85;0.35;;;4.40;99.90;;;;;;5007986;28;20482;-79
2023/01/16 01:35:47;;;;;;;1.65;0.30;;;4.40;99.90;;;;;;5007132;28;20025;-79
2023/01/16 01:38:13;;;;;;;1.55;0.32;;;4.40;99.90;;;;;;5034408;28;20037;-79
2023/01/16 01:40:39;;;;;;;1.13;0.30;;;4.40;99.90;;;;;;5019890;28;20040;-79
2023/01/16 01:43:12;;;;;;;0.77;0.20;;;4.40;99.90;;;;;;5022689;28;20033;-79
2023/01/16 01:45:38;;;;;;;0.50;0.20;;;4.40;99.90;;;;;;5018561;28;20137;-80
2023/01/16 01:48:20;;;;;;;0.85;0.20;;;4.40;99.90;;;;;;4994924;28;20502;-79
2023/01/16 01:51:01;;;;;;;1.70;0.25;;;4.40;99.90;;;;;;5020770;28;20593;-80
2023/01/16 01:53:37;;;;;;;1.50;0.60;;;4.40;99.90;;;;;;4994874;28;20044;-80
2023/01/16 01:56:21;;;;;;;1.00;0.30;;;4.50;99.90;;;;;;5010724;28;20049;-79
2023/01/16 01:58:53;;;;;;;0.38;0.10;;;4.40;99.90;;;;;;5019799;28;20656;-79
2023/01/16 02:01:19;;;;;;;0.30;0.17;;;4.40;99.90;;;;;;5006507;28;20568;-79
2023/01/16 02:04:04;;;;;;;0.90;0.28;;;4.40;99.90;;;;;;4994655;28;20026;-79
2023/01/16 02:06:53;;;;;;;1.30;0.28;;;4.40;99.90;;;;;;5013353;28;20038;-79
2023/01/16 02:09:21;;;;;;;1.27;0.30;;;4.40;99.90;;;;;;5009856;28;20029;-79
2023/01/16 02:11:49;;;;;;;2.00;0.30;;;4.30;99.90;;;;;;5004159;28;20108;-79
2023/01/16 02:14:16;;;;;;;1.20;0.30;;;4.40;99.90;;;;;;5026090;28;20478;-79
2023/01/16 02:19:42;;;;;;;1.33;0.20;;;4.40;99.90;;;;;;5019443;28;20505;-79
2023/01/16 02:22:46;;;;;;;2.33;0.20;;;4.40;99.90;;;;;;5007405;28;20075;-79
2023/01/16 02:25:30;;;;;;;2.15;0.20;;;4.30;99.90;;;;;;5007196;28;20033;-79
2023/01/16 02:28:16;;;;;;;1.55;0.20;;;4.20;99.90;;;;;;5015695;28;20386;-80
2023/01/16 02:31:05;;;;;;;1.75;0.30;;;4.10;99.90;;;;;;5007039;28;20081;-84
2023/01/16 02:33:31;;;;;;;1.50;0.10;;;4.00;99.90;;;;;;5019774;28;20467;-83
2023/01/16 02:36:16;;;;;;;1.05;0.30;;;4.00;99.90;;;;;;5019838;28;20029;-83
2023/01/16 02:38:51;;;;;;;2.00;0.30;;;3.90;99.90;;;;;;5005016;28;20036;-80
2023/01/16 02:41:41;;;;;;;1.40;0.20;;;3.80;99.90;;;;;;5019541;28;20034;-80
2023/01/16 02:44:23;;;;;;;1.60;0.20;;;3.70;99.90;;;;;;4984539;28;20542;-80
2023/01/16 02:47:14;;;;;;;1.05;0.10;;;3.70;99.90;;;;;;5004493;28;20045;-80
2023/01/16 02:49:42;;;;;;;;;;;3.60;99.90;;;;;;5016756;28;20045;-79
2023/01/16 02:52:17;;;;;;;1.65;0.10;;;3.60;99.90;;;;;;5003065;28;19919;-80
2023/01/16 02:54:52;;;;;;;0.40;0.10;;;3.50;99.90;;;;;;5011039;28;20029;-79
2023/01/16 02:57:21;;;;;;;0.80;0.10;;;3.50;99.90;;;;;;4999868;28;20028;-81
2023/01/16 02:59:50;;;;;;;1.48;0.10;;;3.50;99.90;;;;;;5006204;28;20767;-80
2023/01/16 03:02:16;;;;;;;1.20;0.10;;;3.50;99.90;;;;;;5003058;28;20080;-80
2023/01/16 03:04:47;;;;;;;0.20;0.00;;;3.50;99.90;;;;;;4985895;28;20037;-79
2023/01/16 03:07:42;;;;;;;0.30;0.00;;;3.50;99.90;;;;;;5020583;28;20033;-80
2023/01/16 03:10:21;;;;;;;0.30;0.10;;;3.60;99.90;;;;;;5002752;28;20815;-79
2023/01/16 03:13:11;;;;;;;1.17;0.10;;;3.50;99.90;;;;;;5005334;28;20101;-80
2023/01/16 03:16:27;;;;;;;1.17;0.10;;;3.50;99.90;;;;;;5016302;28;20121;-79
2023/01/16 03:19:09;;;;;;;1.00;0.10;;;3.50;99.90;;;;;;4964152;28;20045;-80
2023/01/16 03:22:04;;;;;;;1.85;0.10;;;3.40;99.90;;;;;;4964740;28;20488;-79
2023/01/16 03:25:01;;;;;;;2.95;0.10;;;3.40;99.90;;;;;;4937109;29;20035;-79
2023/01/16 03:27:36;;;;;;;0.65;0.10;;;3.40;99.90;;;;;;4931821;29;20043;-80
2023/01/16 03:30:14;;;;;;;1.38;0.10;;;3.40;99.90;;;;;;4962643;28;20062;-79
2023/01/16 03:32:45;;;;;;;1.42;0.20;;;3.40;99.90;;;;;;4932826;29;20027;-80
2023/01/16 03:35:29;;;;;;;0.80;0.10;;;3.40;99.90;;;;;;4947460;28;20473;-80
2023/01/16 03:38:03;;;;;;;2.17;0.08;;;3.40;99.90;;;;;;4948121;29;20086;-80
2023/01/16 03:40:34;;;;;;;1.27;0.10;;;3.40;99.90;;;;;;4914494;29;20082;-81
2023/01/16 03:43:22;;;;;;;0.47;0.00;;;3.40;99.90;;;;;;4947903;28;20031;-79
2023/01/16 03:45:55;;;;;;;0.85;0.10;;;3.40;99.90;;;;;;4930764;29;20095;-80
2023/01/16 03:48:29;;;;;;;0.80;0.00;;;3.40;99.90;;;;;;4916560;29;20043;-79
2023/01/16 03:51:00;;;;;;;1.25;0.00;;;3.30;99.90;;;;;;4957156;28;20111;-81
2023/01/16 03:53:30;;;;;;;0.57;0.03;;;3.30;99.90;;;;;;4957348;28;20034;-80
2023/01/16 03:56:18;;;;;;;2.97;0.10;;;3.30;99.90;;;;;;4987739;28;20167;-79
2023/01/16 03:58:48;;;;;;;2.08;0.10;;;3.30;99.90;;;;;;5008728;28;20022;-79
2023/01/16 04:01:39;;;;;;;1.65;0.10;;;3.20;99.90;;;;;;4988947;28;20037;-80
2023/01/16 04:04:16;;;;;;;0.38;0.00;;;3.20;99.90;;;;;;4999016;28;20036;-79
2023/01/16 04:06:58;;;;;;;1.38;0.10;;;3.20;99.90;;;;;;5004889;28;20037;-79
2023/01/16 04:09:57;;;;;;;0.30;0.00;;;3.20;99.90;;;;;;5006397;28;20037;-79
2023/01/16 04:12:30;;;;;;;1.40;0.00;;;3.20;99.90;;;;;;5007750;28;20034;-80
2023/01/16 04:15:03;;;;;;;0.45;0.05;;;3.20;99.90;;;;;;5007881;28;20026;-79
2023/01/16 04:17:30;;;;;;;0.68;0.00;;;3.20;99.90;;;;;;5002339;28;20069;-80
2023/01/16 04:19:56;;;;;;;1.35;0.10;;;3.20;99.90;;;;;;5002175;28;20033;-80
2023/01/16 04:22:29;;;;;;;1.23;0.10;;;3.20;99.90;;;;;;5008473;28;20071;-80
2023/01/16 04:25:00;;;;;;;0.93;0.10;;;3.20;99.90;;;;;;5013872;28;20033;-84
2023/01/16 04:27:26;;;;;;;0.63;0.20;;;3.20;99.90;;;;;;4992607;28;20048;-84
2023/01/16 04:29:52;;;;;;;0.60;0.08;;;3.20;99.90;;;;;;5031992;28;20026;-81
2023/01/16 04:32:18;;;;;;;3.17;0.00;;;3.20;99.90;;;;;;5019440;28;20475;-81
2023/01/16 04:34:44;;;;;;;0.35;0.10;;;3.20;99.90;;;;;;5000592;28;20030;-81
2023/01/16 04:37:13;;;;;;;2.15;0.03;;;3.20;99.90;;;;;;5003005;28;20029;-80
2023/01/16 04:39:40;;;;;;;2.45;0.10;;;3.30;99.90;;;;;;5014330;28;20045;-79
2023/01/16 04:42:06;;;;;;;0.82;0.10;;;3.30;99.90;;;;;;5017576;28;20033;-81
2023/01/16 04:44:31;;;;;;;0.20;0.00;;;3.30;99.90;;;;;;5020084;28;20021;-80
2023/01/16 04:46:57;;;;;;;0.73;0.10;;;3.30;99.90;;;;;;5031029;28;20163;-80
2023/01/16 04:49:23;;;;;;;1.58;0.00;;;3.30;99.90;;;;;;5008831;28;20428;-79
2023/01/16 04:51:48;;;;;;;0.60;0.00;;;3.30;99.90;;;;;;5001026;28;20518;-80
2023/01/16 04:54:16;;;;;;;0.73;0.03;;;3.30;99.90;;;;;;5004770;28;20095;-80
2023/01/16 04:56:42;;;;;;;0.52;0.10;;;3.30;99.90;;;;;;5005910;28;20395;-80
2023/01/16 04:59:09;;;;;;;0.75;0.10;;;3.30;99.90;;;;;;5001905;28;20116;-79
2023/01/16 05:01:36;;;;;;;1.20;0.10;;;3.30;99.90;;;;;;5000586;28;20039;-80
2023/01/16 05:04:03;;;;;;;1.30;0.10;;;3.30;99.90;;;;;;5019550;28;20108;-79
2023/01/16 05:06:28;;;;;;;1.95;0.10;;;3.30;99.90;;;;;;4997623;28;20034;-81
2023/01/16 05:08:54;;;;;;;0.85;0.10;;;3.30;99.90;;;;;;5034306;28;20029;-80
2023/01/16 05:11:20;;;;;;;0.95;0.10;;;3.30;99.90;;;;;;5008348;28;20485;-79
2023/01/16 05:13:45;;;;;;;0.40;0.00;;;3.30;99.90;;;;;;5000943;28;20111;-79
2023/01/16 05:16:11;;;;;;;0.73;0.10;;;3.30;99.90;;;;;;4992254;28;20103;-79
2023/01/16 05:18:36;;;;;;;0.82;0.10;;;3.30;99.90;;;;;;5029594;28;20479;-80
2023/01/16 05:21:03;;;;;;;2.60;0.10;;;3.30;99.90;;;;;;4988216;28;20044;-80
2023/01/16 05:23:29;;;;;;;1.08;0.10;;;3.30;99.90;;;;;;4988173;28;20489;-79
2023/01/16 05:25:55;;;;;;;0.68;0.40;;;3.30;99.90;;;;;;5015292;28;20105;-80
2023/01/16 05:28:20;;;;;;;1.05;0.10;;;3.30;99.90;;;;;;5003942;28;20065;-79
2023/01/16 05:30:49;;;;;;;2.13;0.10;;;3.30;99.90;;;;;;4999141;28;20467;-79
2023/01/16 05:33:15;;;;;;;0.77;0.10;;;3.30;99.90;;;;;;4991416;28;20033;-79
2023/01/16 05:35:41;;;;;;;1.65;0.10;;;3.30;99.90;;;;;;4998913;28;20835;-80
2023/01/16 05:38:06;;;;;;;0.85;0.10;;;3.40;99.90;;;;;;5004300;28;20446;-80
2023/01/16 05:40:32;;;;;;;0.93;0.10;;;3.40;99.90;;;;;;5032760;28;20042;-80
2023/01/16 05:42:58;;;;;;;1.20;0.10;;;3.50;99.90;;;;;;5006286;28;20730;-78
2023/01/16 05:45:23;;;;;;;0.65;0.10;;;3.40;99.90;;;;;;4984683;28;20528;-80
2023/01/16 05:47:49;;;;;;;0.80;0.10;;;3.40;99.90;;;;;;5025343;28;20060;-84
2023/01/16 05:50:15;;;;;;;1.35;0.10;;;3.40;99.90;;;;;;4999749;28;20049;-80
2023/01/16 05:52:41;;;;;;;1.13;0.10;;;3.50;99.90;;;;;;4998769;28;20026;-80
2023/01/16 05:55:07;;;;;;;0.45;0.00;;;3.50;99.90;;;;;;5000065;28;20062;-80
2023/01/16 05:57:32;;;;;;;2.92;0.30;;;3.50;99.90;;;;;;5001261;28;20378;-80
2023/01/16 05:59:58;;;;;;;1.08;0.10;;;3.50;99.90;;;;;;5003838;28;20043;-80
2023/01/16 06:02:23;;;;;;;0.45;0.10;;;3.50;99.90;;;;;;4991222;28;20030;-80
2023/01/16 06:04:49;;;;;;;0.47;0.03;;;3.60;99.90;;;;;;5010455;28;20061;-79
2023/01/16 06:07:15;;;;;;;0.40;0.10;;;3.60;99.90;;;;;;5010450;28;20087;-82
2023/01/16 06:09:41;;;;;;;0.43;0.10;;;3.60;99.90;;;;;;4988462;28;20061;-80
2023/01/16 06:12:09;;;;;;;1.13;0.10;;;3.60;99.90;;;;;;5035155;28;20029;-79
2023/01/16 06:14:35;;;;;;;1.58;0.20;;;3.70;99.90;;;;;;4987788;28;20017;-79
2023/01/16 06:17:00;;;;;;;0.43;0.00;;;3.70;99.90;;;;;;5018891;28;20533;-79
2023/01/16 06:19:26;;;;;;;1.10;0.10;;;3.70;99.90;;;;;;5017244;28;20030;-79
2023/01/16 06:21:52;;;;;;;1.42;0.05;;;3.70;99.90;;;;;;5009799;28;20067;-80
2023/01/16 06:24:17;;;;;;;0.70;0.10;;;3.70;99.90;;;;;;5005599;28;20026;-79
2023/01/16 06:26:43;;;;;;;1.45;0.10;;;3.70;99.90;;;;;;5034468;28;20030;-79
2023/01/16 06:29:10;;;;;;;0.88;0.10;;;3.80;99.90;;;;;;5002459;28;20068;-80
2023/01/16 06:31:36;;;;;;;1.35;0.10;;;3.80;99.90;;;;;;4989743;28;20029;-79
2023/01/16 06:34:02;;;;;;;4.80;0.50;;;3.80;99.90;;;;;;4989599;28;20028;-79
2023/01/16 06:36:27;;;;;;;1.08;0.10;;;3.90;99.90;;;;;;4993146;28;20052;-79
2023/01/16 06:38:53;;;;;;;1.85;0.10;;;3.90;99.90;;;;;;4991912;28;20541;-79
2023/01/16 06:41:19;;;;;;;1.83;0.20;;;3.90;99.90;;;;;;5004696;28;20418;-79
2023/01/16 06:43:45;;;;;;;1.38;0.15;;;3.90;99.90;;;;;;5021548;28;20033;-80
2023/01/16 06:46:10;;;;;;;1.25;0.10;;;4.00;99.90;;;;;;4995793;28;20425;-80
2023/01/16 06:48:36;;;;;;;1.38;0.20;;;4.00;99.90;;;;;;5017531;28;20469;-79
2023/01/16 06:51:02;;;;;;;1.25;0.30;;;4.00;99.90;;;;;;5003786;28;20052;-78
2023/01/16 06:53:28;;;;;;;1.95;0.35;;;4.00;99.90;;;;;;5005591;28;20076;-79
2023/01/16 06:55:54;;;;;;;1.90;0.20;;;4.10;99.90;;;;;;5034646;28;20502;-79
2023/01/16 06:58:19;;;;;;;2.40;0.30;;;4.10;99.90;;;;;;5000865;28;20072;-79
2023/01/16 07:00:50;;;;;;;2.55;0.30;;;4.10;99.90;;;;;;5002831;28;20508;-79
2023/01/16 07:03:17;;;;;;;3.30;0.30;;;4.10;99.90;;;;;;5009941;28;20486;-80
2023/01/16 07:05:44;;;;;;;1.58;0.20;;;4.20;99.90;;;;;;4989165;28;20470;-79
2023/01/16 07:08:09;;;;;;;2.05;0.30;;;4.20;99.90;;;;;;4992560;28;20113;-80
2023/01/16 07:10:35;;;;;;;2.92;0.30;;;4.20;99.90;;;;;;5002367;28;20168;-79
2023/01/16 07:13:01;;;;;;;1.40;0.30;;;4.30;99.90;;;;;;5009152;28;20037;-80
2023/01/16 07:23:52;;;;;;;1.17;0.25;;;4.40;99.90;;;;;;5017813;28;20026;-79
2023/01/16 07:26:19;;;;;;;3.03;0.40;;;4.40;99.90;;;;;;4986772;28;20436;-79
2023/01/16 07:28:48;;;;;;;2.95;0.30;;;4.40;99.90;;;;;;5007103;28;20116;-80
2023/01/16 07:31:14;;;;;;;2.13;0.20;;;4.40;99.90;;;;;;5009668;28;20037;-79
2023/01/16 07:33:39;;;;;;;2.35;0.20;;;4.40;99.90;;;;;;5002217;28;20117;-79
2023/01/16 07:36:05;;;;;;;2.63;0.20;;;4.40;99.90;;;;;;5022798;28;20029;-80
2023/01/16 07:38:31;;;;;;;0.85;0.20;;;4.40;99.90;;;;;;4994632;28;20039;-79
2023/01/16 07:40:57;;;;;;;1.00;0.20;;;4.40;99.90;;;;;;5033321;28;20046;-79
2023/01/16 07:43:23;;;;;;;1.60;0.30;;;4.40;99.90;;;;;;5034414;28;20046;-79
2023/01/16 07:45:52;;;;;;;2.40;0.20;;;4.40;99.90;;;;;;5033515;28;20029;-79
2023/01/16 07:48:24;;;;;;;2.47;0.28;;;4.40;99.90;;;;;;5016375;28;20409;-79
2023/01/16 07:50:57;;;;;;;1.63;0.13;;;4.40;99.90;;;;;;5019122;28;20045;-78
2023/01/16 07:53:25;;;;;;;1.77;0.20;;;4.40;99.90;;;;;;4986312;28;20038;-79
2023/01/16 07:55:53;;;;;;;1.83;0.20;;;4.40;99.90;;;;;;5004136;28;20104;-79
2023/01/16 07:58:20;;;;;;;1.27;0.20;;;4.30;99.90;;;;;;4993919;28;20475;-78
2023/01/16 08:00:47;;;;;;;1.13;0.10;;;4.30;99.90;;;;;;4984429;28;20415;-78
2023/01/16 08:03:15;;;;;;;1.95;0.10;;;4.30;99.90;;;;;;4987812;28;20125;-78
2023/01/16 08:05:44;;;;;;;2.53;0.40;;;4.30;99.90;;;;;;4998396;28;20450;-79
2023/01/16 08:08:11;;;;;;;0.60;0.10;;;4.30;99.90;;;;;;4990793;28;20124;-79
2023/01/16 08:10:37;;;;;;;2.67;0.25;;;4.30;99.90;;;;;;5002892;28;20032;-79
2023/01/16 08:13:03;;;;;;;1.30;0.10;;;4.30;99.90;;;;;;5001944;28;20094;-79
2023/01/16 08:15:29;;;;;;;0.70;0.10;;;4.30;99.90;;;;;;4987212;28;20034;-79
2023/01/16 08:17:55;;;;;;;1.27;0.10;;;4.30;99.90;;;;;;4991302;28;20030;-79
2023/01/16 08:20:22;;;;;;;1.10;0.10;;;4.30;99.90;;;;;;5009303;28;20033;-78
2023/01/16 08:22:49;;;;;;;1.00;0.10;;;4.30;99.90;;;;;;4999830;28;20029;-78
2023/01/16 08:25:16;;;;;;;1.45;0.10;;;4.30;99.90;;;;;;4992556;28;20402;-79
2023/01/16 08:27:42;;;;;;;1.42;0.20;;;4.30;99.90;;;;;;5002863;28;20036;-78
2023/01/16 08:30:09;;;;;;;0.47;0.10;;;4.30;99.90;;;;;;5016601;28;20084;-78
2023/01/16 08:32:35;;;;;;;2.35;0.20;;;4.40;99.90;;;;;;5004523;28;20034;-79
2023/01/16 08:35:03;;;;;;;3.33;0.30;;;4.40;99.90;;;;;;5032188;28;20072;-79
2023/01/16 08:37:33;;;;;;;1.17;0.20;;;4.40;99.90;;;;;;4999249;28;20093;-78
2023/01/16 08:39:59;;;;;;;0.60;0.10;;;4.40;99.90;;;;;;5003389;28;20111;-79
2023/01/16 08:53:25;;;;;;;1.77;0.10;;;4.40;99.90;;;;;;5000982;28;20120;-79
2023/01/16 08:55:51;;;;;;;1.50;0.10;;;4.40;99.90;;;;;;4992626;28;20104;-79
2023/01/16 08:58:20;;;;;;;1.52;0.15;;;4.50;99.90;;;;;;4985813;28;20029;-79
2023/01/16 09:00:46;;;;;;;1.80;0.20;;;4.50;99.90;;;;;;5013803;28;20113;-79
2023/01/16 09:03:12;;;;;;;1.27;0.20;;;4.50;99.90;;;;;;4999478;28;20026;-79
2023/01/16 09:05:37;;;;;;;1.23;0.10;;;4.50;99.90;;;;;;4987803;28;20463;-78
2023/01/16 09:08:03;;;;;;;1.92;0.20;;;4.60;99.90;;;;;;5007819;28;20026;-79
2023/01/16 09:10:30;;;;;;;3.13;0.20;;;4.60;99.90;;;;;;5014469;28;20041;-78
2023/01/16 09:15:40;;;;;;;1.10;0.20;;;4.60;99.90;;;;;;5015417;28;20128;-78
2023/01/16 09:18:06;;;;;;;2.40;0.20;;;4.60;99.90;;;;;;5003487;28;20025;-79
2023/01/16 09:20:32;;;;;;;2.90;0.20;;;4.60;99.90;;;;;;4986211;28;20076;-79
2023/01/16 09:22:59;;;;;;;2.28;0.28;;;4.70;99.90;;;;;;5016107;28;20026;-78
2023/01/16 09:25:25;;;;;;;3.72;0.30;;;4.70;99.90;;;;;;5002161;28;20464;-78
2023/01/16 09:27:51;;;;;;;1.52;0.30;;;4.80;99.90;;;;;;5016330;28;20034;-79
2023/01/16 09:30:17;;;;;;;1.83;0.82;;;4.70;99.90;;;;;;5007075;28;20038;-78
2023/01/16 09:32:45;;;;;;;1.63;0.30;;;4.80;99.90;;;;;;5023125;28;20060;-79
2023/01/16 09:35:11;;;;;;;2.13;0.30;;;4.80;99.90;;;;;;4988478;28;20384;-78
2023/01/16 09:37:37;;;;;;;1.58;0.30;;;4.80;99.90;;;;;;5016812;28;20022;-79
2023/01/16 09:40:03;;;;;;;2.63;0.38;;;4.80;99.90;;;;;;5034190;28;20549;-78
2023/01/16 09:45:46;;;;;;;1.45;0.20;;;4.70;99.90;;;;;;5003180;28;20157;-78
2023/01/16 09:48:20;;;;;;;1.75;0.30;;;4.80;99.90;;;;;;5006717;28;20034;-78
2023/01/16 09:50:54;;;;;;;2.08;0.40;;;4.70;99.90;;;;;;4986312;28;20068;-79
2023/01/16 09:59:37;;;;;;;1.08;0.20;;;4.70;99.90;;;;;;5021196;28;20033;-78
2023/01/16 10:02:11;;;;;;;1.88;0.20;;;4.70;99.90;;;;;;4991671;28;20072;-78
2023/01/16 10:04:37;;;;;;;0.70;0.20;;;4.70;99.90;;;;;;5006353;28;20074;-79
2023/01/16 10:07:31;;;;;;;0.73;0.20;;;4.70;99.90;;;;;;4997911;28;20517;-78
2023/01/16 10:10:08;;;;;;;1.63;0.20;;;4.70;99.90;;;;;;5015962;28;20030;-80
2023/01/16 10:12:36;;;;;;;1.38;0.20;;;4.70;99.90;;;;;;4991775;28;20021;-78
2023/01/16 10:15:17;;;;;;;1.45;0.20;;;4.70;99.90;;;;;;4989964;28;20033;-78
2023/01/16 10:18:19;;;;;;;1.70;0.20;;;4.70;99.90;;;;;;5020752;28;20131;-79
2023/01/16 10:21:20;;;;;;;0.60;0.20;;;4.70;99.90;;;;;;5006432;28;20057;-79
2023/01/16 10:24:12;;;;;;;1.77;0.30;;;4.70;99.90;;;;;;4932990;29;20040;-80
2023/01/16 10:26:56;;;;;;;0.73;0.10;;;4.70;99.90;;;;;;4907668;29;20494;-78
2023/01/16 10:29:44;;;;;;;1.42;0.15;;;4.70;99.90;;;;;;4905030;29;20067;-78
2023/01/16 10:32:36;;;;;;;1.02;0.20;;;4.80;99.90;;;;;;4909405;29;20032;-78
2023/01/16 10:35:04;;;;;;;0.50;0.10;;;4.80;99.90;;;;;;4929316;29;20040;-80
2023/01/16 10:37:32;;;;;;;1.15;0.10;;;4.80;99.90;;;;;;4909757;29;20448;-79
2023/01/16 10:40:00;;;;;;;0.63;0.10;;;4.80;99.90;;;;;;4897108;29;20072;-77
2023/01/16 10:50:57;;;;;;;0.75;0.10;;;4.80;99.90;;;;;;4908323;29;20040;-77
2023/01/16 10:53:23;;;;;;;1.73;0.10;;;4.90;99.90;;;;;;4906556;29;20516;-77
2023/01/16 10:55:52;;;;;;;1.40;0.10;;;4.90;99.90;;;;;;4913003;29;20067;-77
2023/01/16 10:58:26;;;;;;;0.43;0.10;;;4.90;99.90;;;;;;4912995;29;20036;-77
2023/01/16 11:01:00;;;;;;;0.95;0.10;;;4.90;99.90;;;;;;4961444;28;20046;-77
2023/01/16 11:03:33;;;;;;;1.00;0.10;;;4.90;99.90;;;;;;5018251;28;20025;-77
2023/01/16 11:06:13;;;;;;;1.00;0.20;;;4.90;99.90;;;;;;5018020;28;22641;-76
2023/01/16 11:08:43;;;;;;;;;;;4.90;99.90;;;;;;4994812;28;20030;-77
2023/01/16 11:19:39;;;;;;;0.55;0.08;;;4.90;99.90;;;;;;5007481;28;20509;-77
2023/01/16 11:22:23;;;;;;;0.50;0.10;;;4.90;99.90;;;;;;4989715;28;20462;-77
2023/01/16 11:24:52;;;;;;;0.30;0.08;;;4.90;99.90;;;;;;5019874;28;20026;-78
2023/01/16 11:27:22;;;;;;;0.70;0.10;;;4.90;99.90;;;;;;4992298;28;20124;-77
2023/01/16 11:29:53;;;;;;;0.52;0.10;;;4.90;99.90;;;;;;4988233;28;20049;-77
2023/01/16 11:32:24;;;;;;;0.85;0.10;;;4.90;99.90;;;;;;4994585;28;20435;-77
2023/01/16 11:34:54;;;;;;;1.38;0.10;;;5.00;99.90;;;;;;4987902;28;20044;-78
2023/01/16 11:37:21;;;;;;;0.30;0.00;;;5.00;99.90;;;;;;5007562;28;20044;-77
2023/01/16 11:39:52;;;;;;;0.28;0.10;;;5.10;99.90;;;;;;5014995;28;20467;-77
2023/01/16 11:48:22;;;;;;;0.30;0.00;;;5.40;99.90;;;;;;5014599;28;20029;-77
2023/01/16 11:50:54;;;;;;;0.20;0.00;;;5.30;99.90;;;;;;4987622;28;20120;-77
2023/01/16 11:53:20;;;;;;;0.43;0.10;;;5.30;99.90;;;;;;4987821;28;20530;-78
2023/01/16 11:56:02;;;;;;;0.35;0.00;;;5.30;99.90;;;;;;5003683;28;20106;-78
2023/01/16 11:58:42;;;;;;;0.10;0.00;;;5.20;99.90;;;;;;5015827;28;20100;-79
2023/01/16 12:01:11;;;;;;;;;;;5.30;99.90;;;;;;5003352;28;20058;-79
2023/01/16 12:03:49;;;;;;;0.85;0.10;;;5.30;99.90;;;;;;5032997;28;20424;-77
2023/01/16 12:06:43;;;;;;;0.95;0.10;;;5.40;99.90;;;;;;5004251;28;20041;-77
2023/01/16 12:09:22;;;;;;;0.30;0.00;;;5.40;99.90;;;;;;5015930;28;20542;-78
2023/01/16 12:14:17;;;;;;;0.43;0.00;;;5.50;99.90;;;;;;5034056;28;20487;-77
2023/01/16 12:15:01;;;;;;;0.10;0.00;;;5.60;99.90;;;;;;5017071;28;20091;-78
2023/01/16 12:18:05;;;;;;;0.10;0.00;;;5.70;99.90;;;;;;4986052;28;20399;-79
2023/01/16 12:20:34;;;;;;;0.20;0.10;;;5.70;99.90;;;;;;4968006;28;20103;-77
2023/01/16 12:23:14;;;;;;;0.43;0.00;;;5.70;99.90;;;;;;4988691;28;20026;-79
2023/01/16 12:25:52;;;;;;;0.25;0.00;;;5.70;99.90;;;;;;5001095;28;20034;-78
2023/01/16 12:28:43;;;;;;;1.17;0.30;;;5.70;99.90;;;;;;4986959;28;20475;-80
2023/01/16 12:31:34;;;;;;;0.20;0.00;;;5.70;99.90;;;;;;4975777;28;20029;-79
2023/01/16 12:34:37;;;;;;;0.20;0.00;;;5.70;99.90;;;;;;4995588;28;20037;-80
2023/01/16 12:37:20;;;;;;;0.80;0.10;;;5.70;99.90;;;;;;5009274;28;21350;-80
2023/01/16 12:39:57;;;;;;;0.98;0.00;;;5.80;99.90;;;;;;4972943;28;20033;-78
2023/01/16 12:45:27;;;;;;;0.30;0.00;;;5.90;99.90;;;;;;5007054;28;20029;-78
2023/01/16 12:48:43;;;;;;;1.27;0.10;;;6.00;99.90;;;;;;5001427;28;20029;-78
2023/01/16 12:51:35;;;;;;;0.93;0.00;;;6.00;99.90;;;;;;4999933;28;20034;-79
2023/01/16 12:54:34;;;;;;;0.80;0.10;;;5.90;99.90;;;;;;4999135;28;20123;-80
2023/01/16 12:57:00;;;;;;;0.80;0.10;;;5.90;99.90;;;;;;4996234;28;20391;-80
2023/01/16 12:59:37;;;;;;;1.00;0.00;;;5.90;99.90;;;;;;5004792;28;20348;-78
2023/01/16 13:02:34;;;;;;;0.10;0.00;;;5.90;99.90;;;;;;4984276;28;20427;-79
2023/01/16 13:05:12;;;;;;;0.28;0.10;;;5.90;99.90;;;;;;5001322;28;20030;-79
2023/01/16 13:07:43;;;;;;;0.68;0.00;;;5.80;99.90;;;;;;4998854;28;20022;-79
2023/01/16 13:15:44;;;;;;;0.13;0.00;;;5.80;99.90;;;;;;5005059;28;20029;-80
2023/01/16 13:18:19;;;;;;;0.28;0.08;;;5.80;99.90;;;;;;4995149;28;20344;-78
2023/01/16 13:20:53;;;;;;;0.35;0.10;;;5.80;99.90;;;;;;4989240;28;20045;-80
2023/01/16 13:23:22;;;;;;;0.57;0.05;;;5.80;99.90;;;;;;4991914;28;20219;-80
2023/01/16 13:25:57;;;;;;;1.30;0.03;;;5.80;99.90;;;;;;5032670;28;20034;-78
2023/01/16 13:28:55;;;;;;;0.50;0.10;;;5.70;99.90;;;;;;4991587;28;20041;-79
2023/01/16 13:31:27;;;;;;;1.20;0.10;;;5.70;99.90;;;;;;5028563;28;20117;-79
2023/01/16 13:34:07;;;;;;;0.15;0.00;;;5.70;99.90;;;;;;5019868;28;20470;-78
2023/01/16 13:36:41;;;;;;;;;;;5.70;99.90;;;;;;5004492;28;20414;-77
2023/01/16 13:39:32;;;;;;;0.68;0.10;;;5.70;99.90;;;;;;5036222;28;20464;-77
2023/01/16 13:41:59;;;;;;;0.10;0.00;;;5.60;99.90;;;;;;4987503;28;20479;-77
2023/01/16 13:47:18;;;;;;;0.47;0.08;;;5.50;99.90;;;;;;5019994;28;20052;-79
2023/01/16 13:49:51;;;;;;;1.83;0.00;;;5.50;99.90;;;;;;5023227;28;20125;-80
2023/01/16 13:52:21;;;;;;;0.40;0.10;;;5.50;99.90;;;;;;5001819;28;20065;-79
2023/01/16 13:54:49;;;;;;;0.57;0.10;;;5.40;99.90;;;;;;4998724;28;20052;-78
2023/01/16 13:57:19;;;;;;;0.75;0.10;;;5.50;99.90;;;;;;5005678;28;20105;-79
2023/01/16 13:59:57;;;;;;;0.40;0.10;;;5.50;99.90;;;;;;4989631;28;20468;-78
2023/01/16 14:02:25;;;;;;;0.15;0.00;;;5.50;99.90;;;;;;4991224;28;20041;-79
2023/01/16 14:05:06;;;;;;;0.43;0.10;;;5.50;99.90;;;;;;5015399;28;20025;-77
2023/01/16 14:11:08;;;;;;;0.50;0.10;;;5.40;99.90;;;;;;5020251;28;20040;-77
2023/01/16 14:13:39;;;;;;;0.25;0.10;;;5.40;99.90;;;;;;4983755;28;20038;-77
2023/01/16 14:19:00;;;;;;;;;;;5.40;99.90;;;;;;5019899;28;20021;-77
2023/01/16 14:21:38;;;;;;;2.30;0.10;;;5.50;99.90;;;;;;5020790;28;19921;-77
2023/01/16 14:24:09;;;;;;;1.13;0.10;;;5.40;99.90;;;;;;5002034;28;20471;-78
2023/01/16 14:26:37;;;;;;;0.47;0.15;;;5.50;99.90;;;;;;5020534;28;20073;-79
2023/01/16 14:29:35;;;;;;;0.30;0.10;;;5.50;99.90;;;;;;5005477;28;20076;-78
2023/01/16 14:32:12;;;;;;;0.20;0.00;;;5.40;99.90;;;;;;5019904;28;20121;-78
2023/01/16 14:34:50;;;;;;;0.47;0.10;;;5.40;99.90;;;;;;4991069;28;20029;-78
2023/01/16 14:37:19;;;;;;;0.10;0.00;;;5.50;99.90;;;;;;5032730;28;20080;-78